createdAt,value
2018-07-31T00:01:41.077Z,5.90
2018-07-31T00:04:09.564Z,5.57
2018-07-31T00:06:38.088Z,6.00
2018-07-31T00:09:08.245Z,6.07
2018-07-31T00:11:36.859Z,6.37
2018-07-31T00:14:05.366Z,5.77
2018-07-31T00:16:33.855Z,6.23
2018-07-31T00:19:02.323Z,6.20
2018-07-31T00:21:30.902Z,6.87
2018-07-31T00:23:59.374Z,5.50
2018-07-31T00:26:27.873Z,6.17
2018-07-31T00:28:56.335Z,6.13
2018-07-31T00:31:24.819Z,6.60
2018-07-31T00:33:53.324Z,5.90
2018-07-31T00:36:21.894Z,6.40
2018-07-31T00:38:50.469Z,5.67
2018-07-31T00:41:18.986Z,6.20
2018-07-31T00:43:47.451Z,7.13
2018-07-31T00:46:15.915Z,6.27
2018-07-31T00:48:44.379Z,6.20
2018-07-31T00:51:12.864Z,6.50
2018-07-31T00:53:41.323Z,6.23
2018-07-31T00:56:09.859Z,5.83
2018-07-31T00:58:38.313Z,6.37
2018-07-31T01:01:06.914Z,5.97
2018-07-31T01:03:35.510Z,6.73
2018-07-31T01:06:03.981Z,6.00
2018-07-31T01:08:32.522Z,5.70
2018-07-31T01:11:01.091Z,6.27
2018-07-31T01:13:29.528Z,6.60
2018-07-31T01:15:58.016Z,6.40
2018-07-31T01:18:26.498Z,5.13
2018-07-31T01:20:55.386Z,6.80
2018-07-31T01:23:23.820Z,6.73
2018-07-31T01:25:52.354Z,7.53
2018-07-31T01:28:20.806Z,6.67
2018-07-31T01:30:49.323Z,6.90
2018-07-31T01:33:17.762Z,6.40
2018-07-31T01:35:46.274Z,6.40
2018-07-31T01:38:14.740Z,6.93
2018-07-31T01:40:43.210Z,6.03
2018-07-31T01:43:11.654Z,6.33
2018-07-31T01:45:39.822Z,5.90
2018-07-31T01:48:08.277Z,7.20
2018-07-31T01:50:37.070Z,7.10
2018-07-31T01:53:05.531Z,6.73
2018-07-31T01:55:33.975Z,6.23
2018-07-31T01:58:02.450Z,6.60
2018-07-31T02:00:30.964Z,7.10
2018-07-31T02:02:59.418Z,6.83
2018-07-31T02:05:27.918Z,6.83
2018-07-31T02:07:56.429Z,7.10
2018-07-31T02:10:24.938Z,7.07
2018-07-31T02:12:53.378Z,6.10
2018-07-31T02:15:21.893Z,6.50
2018-07-31T02:17:50.351Z,6.37
2018-07-31T02:20:18.867Z,6.67
2018-07-31T02:22:47.351Z,5.83
2018-07-31T02:25:15.805Z,7.03
2018-07-31T02:27:44.274Z,7.00
2018-07-31T02:30:18.211Z,6.50
2018-07-31T02:32:46.683Z,7.10
2018-07-31T02:35:15.150Z,6.90
2018-07-31T02:37:43.987Z,6.07
2018-07-31T02:40:12.512Z,7.17
2018-07-31T02:42:41.022Z,6.77
2018-07-31T02:45:12.407Z,7.83
2018-07-31T02:47:41.273Z,6.97
2018-07-31T02:50:10.068Z,7.23
2018-07-31T02:52:38.942Z,6.33
2018-07-31T02:55:08.279Z,7.10
2018-07-31T02:57:36.944Z,7.33
2018-07-31T03:00:07.000Z,7.03
2018-07-31T03:02:35.556Z,6.77
2018-07-31T03:05:04.807Z,7.63
2018-07-31T03:07:33.330Z,6.93
2018-07-31T03:10:01.971Z,7.33
2018-07-31T03:12:30.602Z,6.53
2018-07-31T03:14:59.114Z,7.13
2018-07-31T03:17:27.641Z,6.93
2018-07-31T03:19:56.156Z,6.60
2018-07-31T03:22:24.742Z,6.80
2018-07-31T03:24:53.447Z,6.80
2018-07-31T03:27:21.619Z,7.13
2018-07-31T03:29:50.108Z,7.40
2018-07-31T03:32:18.642Z,6.83
2018-07-31T03:34:47.179Z,7.60
2018-07-31T03:37:15.788Z,6.70
2018-07-31T03:39:44.287Z,7.23
2018-07-31T03:42:12.795Z,6.70
2018-07-31T03:44:41.291Z,6.40
2018-07-31T03:47:09.852Z,7.23
2018-07-31T03:49:38.453Z,7.43
2018-07-31T03:52:07.249Z,6.33
2018-07-31T03:54:35.737Z,7.37
2018-07-31T03:57:04.223Z,7.07
2018-07-31T03:59:32.691Z,7.53
2018-07-31T04:02:01.188Z,7.10
2018-07-31T04:04:29.679Z,6.60
2018-07-31T04:06:58.183Z,6.60
2018-07-31T04:09:26.691Z,7.07
2018-07-31T04:11:55.302Z,6.30
2018-07-31T04:14:23.754Z,7.47
2018-07-31T04:16:52.231Z,7.10
2018-07-31T04:19:20.694Z,7.10
2018-07-31T04:21:49.137Z,7.33
2018-07-31T04:24:17.623Z,7.53
2018-07-31T04:26:46.090Z,7.00
2018-07-31T04:29:14.642Z,6.97
2018-07-31T04:31:43.196Z,7.33
2018-07-31T04:34:11.642Z,7.50
2018-07-31T04:36:40.154Z,7.30
2018-07-31T04:39:11.008Z,7.40
2018-07-31T04:41:39.663Z,6.33
2018-07-31T04:44:08.459Z,8.33
2018-07-31T04:46:37.122Z,7.00
2018-07-31T04:49:05.731Z,7.30
2018-07-31T04:51:34.188Z,7.87
2018-07-31T04:54:02.776Z,7.70
2018-07-31T04:56:31.291Z,6.57
2018-07-31T04:59:00.210Z,8.00
2018-07-31T05:01:28.964Z,6.50
2018-07-31T05:03:57.436Z,6.90
2018-07-31T05:06:25.899Z,7.73
2018-07-31T05:08:54.358Z,7.63
2018-07-31T05:11:22.818Z,7.40
2018-07-31T05:13:52.266Z,8.37
2018-07-31T05:16:20.733Z,7.37
2018-07-31T05:18:49.223Z,7.83
2018-07-31T05:21:17.805Z,7.90
2018-07-31T05:23:46.308Z,7.50
2018-07-31T05:26:14.942Z,7.97
2018-07-31T05:28:43.467Z,9.17
2018-07-31T05:31:12.028Z,7.43
2018-07-31T05:33:40.513Z,7.70
2018-07-31T05:36:08.993Z,8.00
2018-07-31T05:38:37.522Z,7.90
2018-07-31T05:41:06.154Z,7.63
2018-07-31T05:43:35.124Z,7.73
2018-07-31T05:46:03.781Z,8.03
2018-07-31T05:48:32.255Z,7.30
2018-07-31T05:51:00.744Z,7.27
2018-07-31T05:53:29.222Z,6.67
2018-07-31T05:55:57.743Z,7.50
2018-07-31T05:58:26.251Z,6.90
2018-07-31T06:00:54.771Z,6.70
2018-07-31T06:03:23.395Z,6.27
2018-07-31T06:05:51.878Z,6.40
2018-07-31T06:08:20.355Z,7.40
2018-07-31T06:10:48.791Z,6.30
2018-07-31T06:13:17.563Z,6.97
2018-07-31T06:15:46.075Z,5.93
2018-07-31T06:18:14.778Z,5.37
2018-07-31T06:20:43.296Z,6.13
2018-07-31T06:23:11.943Z,6.00
2018-07-31T06:25:40.483Z,5.80
2018-07-31T06:28:08.973Z,6.47
2018-07-31T06:30:37.508Z,6.70
2018-07-31T06:33:06.009Z,6.70
2018-07-31T06:35:34.482Z,6.17
2018-07-31T06:38:03.150Z,5.80
2018-07-31T06:40:31.641Z,6.53
2018-07-31T06:43:00.157Z,5.60
2018-07-31T06:45:28.619Z,6.23
2018-07-31T06:47:57.112Z,5.00
2018-07-31T06:50:25.615Z,5.60
2018-07-31T06:52:54.110Z,5.73
2018-07-31T06:55:22.698Z,5.30
2018-07-31T06:57:51.179Z,4.93
2018-07-31T07:00:19.695Z,5.53
2018-07-31T07:02:48.197Z,5.80
2018-07-31T07:05:16.715Z,5.10
2018-07-31T07:07:45.251Z,5.40
2018-07-31T07:10:13.705Z,5.87
2018-07-31T07:12:42.222Z,5.53
2018-07-31T07:15:10.811Z,4.80
2018-07-31T07:17:39.029Z,5.63
2018-07-31T07:20:07.650Z,5.70
2018-07-31T07:22:36.196Z,5.53
2018-07-31T07:25:04.912Z,5.20
2018-07-31T07:27:33.526Z,5.60
2018-07-31T07:30:02.030Z,4.80
2018-07-31T07:32:30.535Z,5.17
2018-07-31T07:34:59.033Z,5.37
2018-07-31T07:37:27.519Z,4.70
2018-07-31T07:39:56.594Z,5.47
2018-07-31T07:42:25.172Z,4.50
2018-07-31T07:44:53.677Z,5.27
2018-07-31T07:47:22.163Z,5.20
2018-07-31T07:49:50.655Z,4.60
2018-07-31T07:52:19.161Z,4.13
2018-07-31T07:54:47.630Z,5.30
2018-07-31T07:57:16.112Z,5.30
2018-07-31T07:59:45.290Z,5.03
2018-07-31T08:02:13.753Z,5.40
2018-07-31T08:04:42.259Z,4.77
2018-07-31T08:07:10.782Z,5.03
2018-07-31T08:09:39.257Z,5.50
2018-07-31T08:12:07.816Z,5.20
2018-07-31T08:14:36.329Z,5.00
2018-07-31T08:17:04.797Z,5.20
2018-07-31T08:19:33.280Z,5.47
2018-07-31T08:22:01.762Z,4.50
2018-07-31T08:24:30.244Z,5.20
2018-07-31T08:26:58.740Z,5.23
2018-07-31T08:29:27.275Z,5.37
2018-07-31T08:31:55.776Z,4.70
2018-07-31T08:34:24.687Z,4.97
2018-07-31T08:36:53.149Z,5.17
2018-07-31T08:39:21.600Z,5.03
2018-07-31T08:41:50.088Z,4.70
2018-07-31T08:44:19.388Z,5.90
2018-07-31T08:46:47.958Z,5.27
2018-07-31T08:49:17.114Z,5.17
2018-07-31T08:51:45.609Z,5.30
2018-07-31T08:54:14.088Z,4.60
2018-07-31T08:56:42.608Z,5.17
2018-07-31T08:59:11.061Z,5.57
2018-07-31T09:01:39.813Z,4.80
2018-07-31T09:04:09.232Z,5.73
2018-07-31T09:06:37.702Z,5.13
2018-07-31T09:09:08.798Z,5.10
2018-07-31T09:11:37.343Z,4.90
2018-07-31T09:14:06.780Z,5.50
2018-07-31T09:16:35.297Z,5.23
2018-07-31T09:19:03.826Z,4.93
2018-07-31T09:21:32.592Z,5.60
2018-07-31T09:24:01.618Z,5.03
2018-07-31T09:26:30.140Z,4.50
2018-07-31T09:28:58.623Z,5.10
2018-07-31T09:31:27.129Z,4.33
2018-07-31T09:33:55.630Z,4.57
2018-07-31T09:36:24.206Z,5.47
2018-07-31T09:38:52.721Z,4.60
2018-07-31T09:41:21.179Z,4.57
2018-07-31T09:43:49.671Z,4.73
2018-07-31T09:46:18.184Z,4.80
2018-07-31T09:48:46.675Z,5.30
2018-07-31T09:51:15.274Z,4.47
2018-07-31T09:53:43.734Z,4.50
2018-07-31T09:56:12.202Z,5.30
2018-07-31T09:58:40.692Z,4.63
2018-07-31T10:01:14.477Z,4.33
2018-07-31T10:03:42.950Z,4.30
2018-07-31T10:06:11.475Z,4.63
2018-07-31T10:08:40.150Z,4.50
2018-07-31T10:11:08.663Z,4.77
2018-07-31T10:13:37.272Z,4.40
2018-07-31T10:16:06.142Z,4.80
2018-07-31T10:18:34.678Z,4.63
2018-07-31T10:21:03.203Z,4.40
2018-07-31T10:23:31.699Z,4.67
2018-07-31T10:26:00.209Z,4.70
2018-07-31T10:28:28.677Z,4.93
2018-07-31T10:30:57.239Z,4.93
2018-07-31T10:33:25.668Z,5.27
2018-07-31T10:35:54.155Z,4.87
2018-07-31T10:38:23.697Z,4.50
2018-07-31T10:40:52.181Z,4.67
2018-07-31T10:43:20.770Z,4.70
2018-07-31T10:45:49.271Z,5.00
2018-07-31T10:48:17.790Z,4.50
2018-07-31T10:50:46.313Z,4.63
2018-07-31T10:53:14.947Z,5.60
2018-07-31T10:55:43.434Z,5.20
2018-07-31T10:58:11.980Z,4.73
2018-07-31T11:00:40.418Z,5.00
2018-07-31T11:03:08.663Z,4.73
2018-07-31T11:05:37.133Z,4.73
2018-07-31T11:08:05.647Z,5.87
2018-07-31T11:10:34.714Z,4.90
2018-07-31T11:13:03.406Z,5.07
2018-07-31T11:15:32.053Z,5.30
2018-07-31T11:18:00.556Z,5.23
2018-07-31T11:20:29.171Z,6.07
2018-07-31T11:22:57.734Z,5.10
2018-07-31T11:25:26.332Z,5.83
2018-07-31T11:27:54.929Z,5.27
2018-07-31T11:30:23.402Z,5.90
2018-07-31T11:32:51.994Z,5.40
2018-07-31T11:35:20.468Z,5.27
2018-07-31T11:37:48.962Z,5.37
2018-07-31T11:40:17.439Z,5.37
2018-07-31T11:42:45.931Z,5.57
2018-07-31T11:45:14.445Z,4.87
2018-07-31T11:47:42.965Z,5.03
2018-07-31T11:50:11.507Z,6.27
2018-07-31T11:52:40.006Z,5.50
2018-07-31T11:55:08.522Z,6.40
2018-07-31T11:57:37.030Z,5.50
2018-07-31T12:00:07.714Z,6.30
2018-07-31T12:02:36.250Z,5.50
2018-07-31T12:05:05.051Z,5.60
2018-07-31T12:07:33.554Z,5.60
2018-07-31T12:10:02.091Z,6.10
2018-07-31T12:12:30.274Z,5.40
2018-07-31T12:14:58.785Z,5.90
2018-07-31T12:17:27.273Z,5.10
2018-07-31T12:19:55.802Z,5.30
2018-07-31T12:22:24.328Z,5.97
2018-07-31T12:24:52.901Z,5.63
2018-07-31T12:27:22.888Z,5.50
2018-07-31T12:29:52.058Z,5.80
2018-07-31T12:32:20.646Z,5.60
2018-07-31T12:34:49.157Z,5.00
2018-07-31T12:37:17.653Z,5.63
2018-07-31T12:39:46.201Z,4.60
2018-07-31T12:42:14.707Z,5.20
2018-07-31T12:44:43.294Z,5.07
2018-07-31T12:47:11.988Z,5.50
2018-07-31T12:49:40.568Z,4.90
2018-07-31T12:52:09.777Z,4.50
2018-07-31T12:54:38.361Z,5.30
2018-07-31T12:57:06.955Z,4.60
2018-07-31T12:59:35.574Z,4.80
2018-07-31T13:02:04.243Z,4.43
2018-07-31T13:04:32.747Z,4.63
2018-07-31T13:07:01.261Z,4.93
2018-07-31T13:09:29.763Z,4.70
2018-07-31T13:11:58.243Z,5.37
2018-07-31T13:14:26.715Z,5.90
2018-07-31T13:16:55.258Z,4.57
2018-07-31T13:19:23.895Z,4.20
2018-07-31T13:21:52.596Z,4.57
2018-07-31T13:24:21.706Z,4.40
2018-07-31T13:26:50.286Z,4.60
2018-07-31T13:29:18.782Z,4.27
2018-07-31T13:31:46.912Z,4.87
2018-07-31T13:34:15.456Z,4.90
2018-07-31T13:36:44.000Z,5.47
2018-07-31T13:39:12.544Z,4.60
2018-07-31T13:41:41.036Z,5.33
2018-07-31T13:44:09.819Z,4.60
2018-07-31T13:46:38.098Z,4.47
2018-07-31T13:49:06.663Z,4.80
2018-07-31T13:51:35.263Z,5.20
2018-07-31T13:54:03.865Z,4.57
2018-07-31T13:56:32.371Z,4.90
2018-07-31T13:59:00.960Z,5.30
2018-07-31T14:01:29.484Z,4.80
2018-07-31T14:03:57.999Z,4.80
2018-07-31T14:06:26.486Z,4.53
2018-07-31T14:08:54.969Z,4.60
2018-07-31T14:11:23.463Z,4.90
2018-07-31T14:13:52.035Z,4.40
2018-07-31T14:16:20.509Z,5.20
2018-07-31T14:18:49.010Z,4.70
2018-07-31T14:21:18.579Z,4.50
2018-07-31T14:23:47.164Z,4.83
2018-07-31T14:26:15.711Z,4.70
2018-07-31T14:28:44.454Z,5.13
2018-07-31T14:31:13.252Z,4.50
2018-07-31T14:33:41.773Z,4.50
2018-07-31T14:36:10.374Z,4.97
2018-07-31T14:38:39.059Z,5.10
2018-07-31T14:41:07.527Z,5.20
2018-07-31T14:43:36.258Z,5.20
2018-07-31T14:46:04.875Z,4.50
2018-07-31T14:48:33.494Z,5.27
2018-07-31T14:51:01.963Z,4.43
2018-07-31T14:53:30.516Z,4.47
2018-07-31T14:55:59.081Z,4.90
2018-07-31T14:58:27.762Z,4.37
2018-07-31T15:00:56.461Z,5.70
2018-07-31T15:03:25.025Z,4.97
2018-07-31T15:05:55.005Z,4.23
2018-07-31T15:08:23.727Z,5.40
2018-07-31T15:10:52.545Z,4.93
2018-07-31T15:13:21.139Z,5.23
2018-07-31T15:15:49.690Z,4.73
2018-07-31T15:18:18.011Z,5.10
2018-07-31T15:20:46.550Z,4.90
2018-07-31T15:23:15.964Z,4.40
2018-07-31T15:25:44.518Z,5.53
2018-07-31T15:28:13.271Z,4.70
2018-07-31T15:30:41.769Z,4.80
2018-07-31T15:33:10.496Z,4.33
2018-07-31T15:35:39.084Z,4.67
2018-07-31T15:38:07.741Z,4.30
2018-07-31T15:40:36.432Z,4.97
2018-07-31T15:43:05.188Z,4.40
2018-07-31T15:45:33.767Z,5.17
2018-07-31T15:48:02.382Z,4.97
2018-07-31T15:50:31.007Z,4.77
2018-07-31T15:52:59.652Z,4.57
2018-07-31T15:55:28.400Z,4.23
2018-07-31T15:57:57.051Z,4.60
2018-07-31T16:00:25.843Z,4.57
2018-07-31T16:02:54.352Z,5.70
2018-07-31T16:05:22.853Z,5.10
2018-07-31T16:07:51.443Z,5.20
2018-07-31T16:10:20.226Z,5.50
2018-07-31T16:12:48.898Z,5.40
2018-07-31T16:15:17.566Z,5.33
2018-07-31T16:17:46.348Z,5.70
2018-07-31T16:20:15.473Z,5.43
2018-07-31T16:22:44.891Z,5.47
2018-07-31T16:25:13.426Z,5.20
2018-07-31T16:27:41.971Z,4.83
2018-07-31T16:30:10.628Z,6.07
2018-07-31T16:32:39.417Z,5.20
2018-07-31T16:35:08.017Z,5.60
2018-07-31T16:37:36.680Z,6.20
2018-07-31T16:40:05.795Z,5.20
2018-07-31T16:42:34.315Z,6.03
2018-07-31T16:45:02.900Z,5.77
2018-07-31T16:47:31.415Z,4.67
2018-07-31T16:49:59.958Z,5.90
2018-07-31T16:52:28.547Z,6.10
2018-07-31T16:54:57.111Z,5.60
2018-07-31T16:57:25.569Z,5.93
2018-07-31T16:59:54.046Z,6.03
2018-07-31T17:02:22.544Z,5.00
2018-07-31T17:04:51.056Z,5.23
2018-07-31T17:07:19.679Z,5.30
2018-07-31T17:09:48.221Z,6.03
2018-07-31T17:12:16.720Z,5.23
2018-07-31T17:14:45.286Z,5.40
2018-07-31T17:17:13.987Z,5.33
2018-07-31T17:19:42.497Z,5.87
2018-07-31T17:22:11.003Z,5.60
2018-07-31T17:24:39.620Z,5.23
2018-07-31T17:27:08.169Z,5.50
2018-07-31T17:29:36.677Z,5.50
2018-07-31T17:32:05.238Z,5.93
2018-07-31T17:34:33.807Z,4.90
2018-07-31T17:37:02.387Z,5.73
2018-07-31T17:39:30.959Z,6.07
2018-07-31T17:41:59.593Z,5.93
2018-07-31T17:44:28.159Z,5.67
2018-07-31T17:46:56.600Z,6.17
2018-07-31T17:49:25.126Z,5.40
2018-07-31T17:51:53.705Z,6.30
2018-07-31T17:54:22.039Z,5.00
2018-07-31T17:56:50.585Z,5.50
2018-07-31T17:59:19.202Z,6.13
2018-07-31T18:01:47.958Z,6.33
2018-07-31T18:04:16.850Z,5.67
2018-07-31T18:06:45.395Z,5.83
2018-07-31T18:09:14.492Z,5.40
2018-07-31T18:11:43.110Z,6.07
2018-07-31T18:14:11.728Z,5.77
2018-07-31T18:16:40.141Z,5.93
2018-07-31T18:19:08.970Z,5.30
2018-07-31T18:21:38.165Z,4.50
2018-07-31T18:24:07.371Z,4.53
2018-07-31T18:26:36.480Z,4.80
2018-07-31T18:29:05.446Z,4.13
2018-07-31T18:31:33.947Z,5.30
2018-07-31T18:34:02.465Z,5.00
2018-07-31T18:36:31.105Z,5.27
2018-07-31T18:38:59.594Z,4.80
2018-07-31T18:41:28.109Z,5.20
2018-07-31T18:43:56.717Z,5.13
2018-07-31T18:46:25.329Z,5.43
2018-07-31T18:48:53.513Z,4.77
2018-07-31T18:51:22.165Z,4.50
2018-07-31T18:53:50.905Z,4.67
2018-07-31T18:56:19.465Z,4.70
2018-07-31T18:58:48.002Z,4.60
2018-07-31T19:01:17.007Z,4.53
2018-07-31T19:03:45.608Z,4.97
2018-07-31T19:06:14.306Z,5.80
2018-07-31T19:08:43.976Z,5.00
2018-07-31T19:11:12.830Z,4.37
2018-07-31T19:13:41.532Z,4.80
2018-07-31T19:16:13.387Z,5.13
2018-07-31T19:18:42.164Z,5.27
2018-07-31T19:21:10.387Z,5.73
2018-07-31T19:23:39.215Z,5.20
2018-07-31T19:26:07.777Z,5.17
2018-07-31T19:28:36.651Z,5.30
2018-07-31T19:31:05.278Z,5.17
2018-07-31T19:33:33.976Z,4.93
2018-07-31T19:36:02.887Z,5.53
2018-07-31T19:38:31.598Z,5.23
2018-07-31T19:41:00.298Z,5.00
2018-07-31T19:43:28.894Z,4.80
2018-07-31T19:45:57.960Z,5.50
2018-07-31T19:48:26.578Z,5.37
2018-07-31T19:50:55.768Z,6.70
2018-07-31T19:53:24.487Z,5.47
2018-07-31T19:55:53.411Z,6.00
2018-07-31T19:58:22.204Z,6.43
2018-07-31T20:00:50.958Z,6.37
2018-07-31T20:03:19.829Z,6.10
2018-07-31T20:05:48.346Z,4.47
2018-07-31T20:08:17.469Z,5.43
2018-07-31T20:10:46.348Z,4.90
2018-07-31T20:13:14.899Z,5.20
2018-07-31T20:15:43.744Z,5.00
2018-07-31T20:18:13.416Z,5.80
2018-07-31T20:20:41.982Z,5.50
2018-07-31T20:23:10.660Z,5.43
2018-07-31T20:25:39.446Z,5.10
2018-07-31T20:28:08.007Z,5.60
2018-07-31T20:30:36.578Z,5.73
2018-07-31T20:33:05.368Z,5.07
2018-07-31T20:35:33.880Z,6.07
2018-07-31T20:38:02.404Z,4.60
2018-07-31T20:40:30.979Z,5.07
2018-07-31T20:42:59.749Z,4.97
2018-07-31T20:45:28.284Z,5.07
2018-07-31T20:47:56.947Z,5.17
2018-07-31T20:50:25.569Z,5.40
2018-07-31T20:52:54.089Z,5.37
2018-07-31T20:55:22.570Z,4.30
2018-07-31T20:57:51.073Z,5.50
2018-07-31T21:00:19.668Z,5.03
2018-07-31T21:02:48.262Z,5.17
2018-07-31T21:05:16.930Z,5.17
2018-07-31T21:07:45.459Z,5.00
2018-07-31T21:10:14.100Z,4.63
2018-07-31T21:12:42.674Z,6.40
2018-07-31T21:15:11.215Z,7.07
2018-07-31T21:17:39.737Z,5.70
2018-07-31T21:20:08.425Z,5.93
2018-07-31T21:22:36.939Z,5.53
2018-07-31T21:25:05.789Z,6.40
2018-07-31T21:27:34.186Z,6.10
2018-07-31T21:30:02.750Z,5.70
2018-07-31T21:32:31.602Z,6.50
2018-07-31T21:35:00.165Z,5.90
2018-07-31T21:37:28.736Z,5.63
2018-07-31T21:39:57.219Z,6.03
2018-07-31T21:42:25.798Z,5.37
2018-07-31T21:44:54.276Z,6.57
2018-07-31T21:47:22.776Z,6.03
2018-07-31T21:49:50.931Z,7.30
2018-07-31T21:52:19.419Z,6.13
2018-07-31T21:54:47.897Z,6.33
2018-07-31T21:57:16.390Z,7.17
2018-07-31T21:59:44.951Z,6.93
2018-07-31T22:02:13.547Z,6.70
2018-07-31T22:04:41.710Z,6.60
2018-07-31T22:07:10.328Z,7.70
2018-07-31T22:09:44.040Z,6.63
2018-07-31T22:12:13.104Z,8.67
2018-07-31T22:14:42.130Z,8.00
2018-07-31T22:17:10.731Z,7.70
2018-07-31T22:19:39.309Z,7.47
2018-07-31T22:22:07.811Z,8.37
2018-07-31T22:24:36.329Z,7.73
2018-07-31T22:27:04.779Z,7.10
2018-07-31T22:29:33.280Z,7.80
2018-07-31T22:32:01.786Z,8.37
2018-07-31T22:34:30.225Z,7.30
2018-07-31T22:36:58.683Z,7.00
2018-07-31T22:39:27.166Z,7.50
2018-07-31T22:41:55.708Z,8.77
2018-07-31T22:44:24.201Z,7.33
2018-07-31T22:46:52.750Z,7.13
2018-07-31T22:49:21.257Z,7.20
2018-07-31T22:51:49.756Z,7.50
2018-07-31T22:54:18.243Z,7.97
2018-07-31T22:56:46.707Z,6.83
2018-07-31T22:59:15.185Z,7.10
2018-07-31T23:01:43.636Z,7.60
2018-07-31T23:04:12.093Z,8.50
2018-07-31T23:06:40.576Z,7.80
2018-07-31T23:09:10.490Z,8.13
2018-07-31T23:11:38.934Z,8.43
2018-07-31T23:14:07.476Z,8.70
2018-07-31T23:16:36.726Z,8.57
2018-07-31T23:19:05.312Z,8.83
2018-07-31T23:21:33.867Z,8.00
2018-07-31T23:24:02.355Z,7.53
2018-07-31T23:26:30.804Z,8.07
2018-07-31T23:28:59.290Z,9.70
2018-07-31T23:31:27.868Z,8.50
2018-07-31T23:33:56.349Z,8.60
2018-07-31T23:36:24.826Z,8.43
2018-07-31T23:38:53.318Z,8.07
2018-07-31T23:41:21.798Z,8.70
2018-07-31T23:43:50.843Z,8.03
2018-07-31T23:46:19.313Z,8.87
2018-07-31T23:48:47.807Z,8.90
2018-07-31T23:51:16.328Z,8.53
2018-07-31T23:53:44.784Z,8.73
2018-07-31T23:56:13.291Z,8.57
2018-07-31T23:58:41.752Z,9.33
